Prosser Lakeview, California
Current Conditions -  °F | °C
As of 6:45 AM on Sunday 21 Dec 2014 (Local Time) from KTRK Reporting Station
Scattered Clouds Scattered Clouds  
Wind Chill: 34°   Ceiling: Unl
Heat Index: 34°   Visibility: 10mi
Dew Point: 34°   Wind: 3mph
Humidity: 100%   Direction: 160°SSE
Pressure: 30.35"   Gusts: NA
Location:  39.3569°N, 120.175°W
Report Text: KTRK 211445Z 16003KT 10SM SCT012 SCT025 01/01 A3035 RMK NOSPECI FIRST 24HR MAX 0056 MIN 0022
Loading
Personal Weather Stations






























Interactive Weather Map New forecast layout! Learn more

10-Day Weather Forecast

Advertisements
Track Severe Weather on mobile